Time;durP1;ratioP1;P1;durP2;ratioP2;P2;SDS_P1;SDS_P2;PMS_P1;PMS_P2;Temp;Humidity;BMP_temperature;BMP_pressure;BME280_temperature;BME280_humidity;BME280_pressure;Samples;Min_cycle;Max_cycle;Signal;HPM_P1;HPM_P2
2023/09/03 00:00:51;;;;;;;2.05;1.05;;;19.00;67.90;;;;;;5100275;27;20087;-61
2023/09/03 00:03:17;;;;;;;2.60;1.40;;;18.90;67.90;;;;;;5107131;27;20062;-60
2023/09/03 00:05:56;;;;;;;3.53;1.25;;;18.90;67.80;;;;;;5104456;27;20088;-60
2023/09/03 00:08:22;;;;;;;1.92;1.20;;;18.90;68.70;;;;;;5110805;27;20039;-61
2023/09/03 00:10:49;;;;;;;2.05;1.38;;;18.90;67.90;;;;;;5081548;28;20050;-60
2023/09/03 00:13:15;;;;;;;4.00;1.38;;;18.90;68.10;;;;;;5104964;27;20045;-61
2023/09/03 00:15:41;;;;;;;1.30;1.10;;;18.80;68.00;;;;;;5092372;28;20070;-60
2023/09/03 00:18:08;;;;;;;3.65;1.40;;;18.80;68.10;;;;;;5111223;27;20023;-60
2023/09/03 00:20:33;;;;;;;2.28;1.13;;;18.80;68.20;;;;;;5106381;27;20035;-60
2023/09/03 00:22:59;;;;;;;1.42;1.20;;;18.80;68.20;;;;;;5107480;27;20501;-60
2023/09/03 00:25:24;;;;;;;3.75;1.27;;;18.80;68.20;;;;;;5107963;27;20425;-60
2023/09/03 00:27:50;;;;;;;1.98;1.23;;;18.80;68.30;;;;;;5051207;27;20032;-60
2023/09/03 00:30:16;;;;;;;3.17;1.70;;;18.70;68.30;;;;;;5102508;27;20028;-60
2023/09/03 00:32:42;;;;;;;2.47;1.30;;;18.70;68.50;;;;;;5103223;27;20024;-60
2023/09/03 00:35:08;;;;;;;4.43;1.10;;;18.70;68.50;;;;;;5112033;27;20459;-60
2023/09/03 00:37:34;;;;;;;1.58;1.10;;;18.70;68.60;;;;;;5107295;27;21359;-60
2023/09/03 00:40:02;;;;;;;1.70;1.40;;;18.70;68.60;;;;;;5100918;27;20067;-60
2023/09/03 00:42:28;;;;;;;4.00;1.30;;;18.60;68.60;;;;;;5105270;27;20034;-60
2023/09/03 00:44:53;;;;;;;4.35;1.10;;;18.60;68.70;;;;;;5113713;27;20031;-61
2023/09/03 00:47:19;;;;;;;4.95;1.20;;;18.60;68.70;;;;;;5107705;27;20035;-61
2023/09/03 00:49:45;;;;;;;2.72;1.20;;;18.60;68.80;;;;;;5105491;27;20517;-61
2023/09/03 00:52:12;;;;;;;2.90;1.10;;;18.60;68.80;;;;;;5111427;27;20047;-60
2023/09/03 00:54:39;;;;;;;3.53;1.20;;;18.50;68.90;;;;;;5113932;27;20079;-60
2023/09/03 00:57:05;;;;;;;2.50;1.17;;;18.50;68.90;;;;;;5111209;27;20038;-61
2023/09/03 00:59:31;;;;;;;1.95;1.02;;;18.50;68.90;;;;;;5105163;27;20023;-61
2023/09/03 01:01:58;;;;;;;2.85;1.30;;;18.50;69.00;;;;;;5102118;27;20031;-59
2023/09/03 01:04:24;;;;;;;6.63;1.38;;;18.40;69.00;;;;;;5087302;28;20444;-60
2023/09/03 01:06:51;;;;;;;6.43;1.40;;;18.40;69.20;;;;;;5104651;27;20372;-60
2023/09/03 01:09:18;;;;;;;4.45;1.10;;;18.40;69.30;;;;;;5107719;27;20028;-60
2023/09/03 01:12:03;;;;;;;2.22;1.50;;;18.40;69.20;;;;;;5108832;27;20083;-61
2023/09/03 01:14:38;;;;;;;4.53;1.35;;;18.40;70.00;;;;;;5105320;27;20027;-60
2023/09/03 01:17:22;;;;;;;4.40;1.23;;;18.40;69.20;;;;;;5106209;27;20023;-60
2023/09/03 01:20:10;;;;;;;2.47;1.17;;;18.30;69.70;;;;;;5092828;27;20541;-60
2023/09/03 01:22:58;;;;;;;1.30;1.20;;;18.30;70.20;;;;;;5108835;27;20281;-61
2023/09/03 01:25:40;;;;;;;2.50;1.35;;;18.30;69.70;;;;;;5091001;27;20036;-61
2023/09/03 01:28:38;;;;;;;3.97;1.42;;;18.20;69.90;;;;;;5025486;27;20527;-60
2023/09/03 01:31:11;;;;;;;2.78;1.45;;;18.20;69.80;;;;;;5097136;28;20047;-60
2023/09/03 01:33:41;;;;;;;2.85;1.30;;;18.20;69.50;;;;;;5103947;27;20027;-60
2023/09/03 01:36:09;;;;;;;2.65;1.30;;;18.10;69.70;;;;;;5110906;27;20031;-60
2023/09/03 01:38:39;;;;;;;1.45;1.10;;;18.10;69.60;;;;;;5099840;27;20559;-60
2023/09/03 01:41:06;;;;;;;1.88;1.30;;;18.10;70.00;;;;;;5103152;27;20079;-60
2023/09/03 01:43:33;;;;;;;2.63;1.25;;;18.10;69.80;;;;;;5096858;27;20413;-60
2023/09/03 01:46:08;;;;;;;2.25;1.20;;;18.10;69.80;;;;;;5101786;28;20040;-60
2023/09/03 01:48:48;;;;;;;3.22;1.20;;;18.10;70.10;;;;;;5105024;28;20025;-60
2023/09/03 01:51:37;;;;;;;4.68;1.20;;;18.00;70.40;;;;;;5099533;28;20490;-61
2023/09/03 01:54:13;;;;;;;3.10;1.10;;;18.00;71.10;;;;;;5084033;28;20043;-60
2023/09/03 01:56:44;;;;;;;3.25;1.20;;;18.00;70.30;;;;;;5107638;28;20060;-60
2023/09/03 01:59:19;;;;;;;2.08;1.13;;;18.00;70.30;;;;;;5103604;28;20477;-60
2023/09/03 02:01:46;;;;;;;2.42;1.20;;;18.00;70.60;;;;;;5098747;28;20019;-62
2023/09/03 02:04:12;;;;;;;1.55;1.10;;;18.00;70.10;;;;;;5106477;28;20036;-62
2023/09/03 02:06:38;;;;;;;3.13;1.00;;;17.90;70.20;;;;;;5102135;28;20052;-61
2023/09/03 02:09:04;;;;;;;2.72;1.20;;;18.00;70.30;;;;;;5105946;28;20019;-61
2023/09/03 02:11:30;;;;;;;2.40;1.00;;;18.00;70.40;;;;;;5099753;28;20378;-61
2023/09/03 02:13:55;;;;;;;2.35;1.15;;;18.00;70.40;;;;;;5106343;28;20024;-60
2023/09/03 02:16:21;;;;;;;3.42;1.10;;;18.00;70.40;;;;;;5105809;27;20034;-60
2023/09/03 02:18:47;;;;;;;1.27;1.08;;;18.00;71.10;;;;;;5112047;27;20478;-61
2023/09/03 02:21:13;;;;;;;1.80;1.10;;;18.00;70.40;;;;;;5105751;27;20031;-60
2023/09/03 02:23:39;;;;;;;4.00;1.20;;;18.00;70.40;;;;;;5110598;27;20043;-61
2023/09/03 02:26:04;;;;;;;7.30;1.30;;;18.00;70.40;;;;;;5102032;27;20225;-60
2023/09/03 02:28:30;;;;;;;1.38;1.02;;;18.00;70.40;;;;;;5048096;27;20508;-61
2023/09/03 02:30:56;;;;;;;1.92;1.10;;;18.00;70.40;;;;;;5112219;27;20031;-60
2023/09/03 02:33:22;;;;;;;2.92;1.10;;;17.90;70.40;;;;;;5106951;27;20039;-60
2023/09/03 02:35:48;;;;;;;3.97;1.48;;;17.90;70.40;;;;;;5108195;27;20031;-60
2023/09/03 02:38:14;;;;;;;3.08;1.30;;;17.90;70.40;;;;;;5106802;27;20073;-61
2023/09/03 02:40:39;;;;;;;2.05;1.10;;;17.90;70.60;;;;;;5112806;27;20043;-61
2023/09/03 02:43:05;;;;;;;3.60;1.00;;;17.90;70.60;;;;;;5103721;27;20015;-60
2023/09/03 02:45:31;;;;;;;8.85;1.30;;;17.90;70.60;;;;;;5090505;27;20434;-61
2023/09/03 02:47:57;;;;;;;1.58;1.20;;;17.90;70.70;;;;;;5108477;27;20053;-61
2023/09/03 02:50:22;;;;;;;1.38;1.10;;;17.80;70.70;;;;;;5111147;27;20095;-62
2023/09/03 02:52:49;;;;;;;3.30;1.40;;;17.80;70.70;;;;;;5109013;27;20024;-60
2023/09/03 02:55:14;;;;;;;1.17;1.02;;;17.80;70.80;;;;;;5103297;27;20110;-60
2023/09/03 02:57:40;;;;;;;2.17;1.25;;;17.80;70.90;;;;;;5104372;27;20099;-61
2023/09/03 03:00:06;;;;;;;2.13;0.95;;;17.80;70.90;;;;;;5112202;27;20038;-61
2023/09/03 03:02:33;;;;;;;2.17;1.00;;;17.80;70.90;;;;;;5106872;27;20401;-60
2023/09/03 03:04:58;;;;;;;3.50;1.10;;;17.80;71.10;;;;;;5105686;27;20066;-62
2023/09/03 03:07:25;;;;;;;2.05;1.20;;;17.80;71.10;;;;;;5111476;27;20493;-61
2023/09/03 03:09:51;;;;;;;2.00;1.00;;;17.80;71.20;;;;;;5106185;27;20685;-60
2023/09/03 03:12:18;;;;;;;3.22;1.60;;;17.80;71.30;;;;;;5113380;27;20194;-61
2023/09/03 03:14:44;;;;;;;5.40;1.92;;;17.80;71.30;;;;;;5105778;27;20031;-63
2023/09/03 03:17:10;;;;;;;2.88;1.30;;;17.80;71.20;;;;;;5115745;27;20069;-61
2023/09/03 03:19:36;;;;;;;2.30;1.50;;;17.80;71.10;;;;;;5097266;27;20469;-60
2023/09/03 03:22:01;;;;;;;3.30;1.20;;;17.80;71.80;;;;;;5109547;27;20032;-59
2023/09/03 03:24:27;;;;;;;2.45;1.30;;;17.80;71.10;;;;;;5113388;27;20087;-61
2023/09/03 03:26:52;;;;;;;1.65;1.10;;;17.80;71.10;;;;;;5102112;27;20024;-61
2023/09/03 03:29:18;;;;;;;3.63;1.10;;;17.80;71.10;;;;;;5089650;27;20028;-60
2023/09/03 03:31:44;;;;;;;2.72;1.23;;;17.80;71.20;;;;;;5106122;27;20039;-61
2023/09/03 03:34:10;;;;;;;4.25;1.98;;;17.80;71.20;;;;;;5108135;27;20020;-60
2023/09/03 03:36:35;;;;;;;2.30;1.13;;;17.80;71.10;;;;;;5105325;27;20027;-61
2023/09/03 03:39:01;;;;;;;3.42;1.20;;;17.80;71.10;;;;;;5105057;27;20080;-60
2023/09/03 03:41:26;;;;;;;2.47;1.17;;;17.70;71.00;;;;;;5111089;27;20042;-60
2023/09/03 03:43:52;;;;;;;2.25;1.17;;;17.70;71.00;;;;;;5107355;27;20043;-60
2023/09/03 03:46:19;;;;;;;1.98;1.30;;;17.70;71.00;;;;;;5107856;27;20024;-59
2023/09/03 03:48:47;;;;;;;2.47;1.02;;;17.70;71.90;;;;;;5101994;27;20054;-60
2023/09/03 03:51:13;;;;;;;4.25;1.20;;;17.70;71.20;;;;;;5107686;27;20027;-61
2023/09/03 03:53:39;;;;;;;9.05;1.10;;;17.70;71.20;;;;;;5106594;27;20490;-60
2023/09/03 03:56:06;;;;;;;1.27;1.02;;;17.70;71.20;;;;;;5107323;27;20074;-62
2023/09/03 03:58:37;;;;;;;2.40;1.15;;;17.70;71.20;;;;;;5107836;27;20027;-61
2023/09/03 04:01:12;;;;;;;3.20;1.42;;;17.60;71.50;;;;;;5101123;27;20027;-61
2023/09/03 04:03:38;;;;;;;5.88;1.10;;;17.60;71.80;;;;;;5101631;27;20126;-60
2023/09/03 04:06:03;;;;;;;5.60;1.20;;;17.60;71.40;;;;;;5112999;27;20110;-61
2023/09/03 04:08:34;;;;;;;1.60;1.10;;;17.60;71.60;;;;;;5111478;27;20039;-61
2023/09/03 04:11:04;;;;;;;3.38;1.13;;;17.60;72.10;;;;;;5106902;27;20027;-61
2023/09/03 04:13:30;;;;;;;2.10;0.88;;;17.50;71.80;;;;;;5104308;27;20020;-61
2023/09/03 04:15:57;;;;;;;6.72;1.73;;;17.60;71.90;;;;;;5086641;27;20030;-61
2023/09/03 04:18:24;;;;;;;5.63;1.15;;;17.50;72.00;;;;;;5086927;28;20150;-61
2023/09/03 04:20:54;;;;;;;1.10;1.00;;;17.60;72.10;;;;;;5098224;28;20843;-60
2023/09/03 04:23:20;;;;;;;6.15;1.00;;;17.60;72.20;;;;;;5089532;28;20044;-60
2023/09/03 04:25:46;;;;;;;1.27;1.00;;;17.60;72.20;;;;;;5107871;27;20448;-60
2023/09/03 04:28:12;;;;;;;3.45;1.30;;;17.60;72.10;;;;;;5018840;27;20036;-61
2023/09/03 04:30:38;;;;;;;3.20;1.10;;;17.60;72.00;;;;;;5104873;27;20068;-60
2023/09/03 04:33:06;;;;;;;8.07;1.50;;;17.60;71.90;;;;;;5108964;27;20022;-60
2023/09/03 04:35:32;;;;;;;1.00;0.90;;;17.60;71.90;;;;;;5109637;27;20045;-62
2023/09/03 04:37:57;;;;;;;1.50;1.15;;;17.60;71.90;;;;;;5100749;27;20036;-60
2023/09/03 04:40:24;;;;;;;4.70;1.25;;;17.60;71.90;;;;;;5110916;27;20031;-60
2023/09/03 04:42:49;;;;;;;3.70;1.00;;;17.60;71.80;;;;;;5106896;27;20105;-61
2023/09/03 04:45:15;;;;;;;3.60;1.13;;;17.60;71.80;;;;;;5107601;27;20563;-61
2023/09/03 04:47:41;;;;;;;2.50;1.30;;;17.60;71.90;;;;;;5095317;27;20070;-60
2023/09/03 04:50:07;;;;;;;3.13;1.38;;;17.60;71.90;;;;;;5110227;27;20028;-60
2023/09/03 04:52:34;;;;;;;5.68;1.20;;;17.60;71.90;;;;;;5093371;27;20030;-60
2023/09/03 04:55:00;;;;;;;1.42;1.17;;;17.60;72.00;;;;;;5107951;27;20436;-60
2023/09/03 04:57:25;;;;;;;2.58;1.20;;;17.60;72.10;;;;;;5106365;27;20023;-60
2023/09/03 04:59:51;;;;;;;1.63;1.17;;;17.60;72.20;;;;;;5105228;27;20065;-60
2023/09/03 05:02:17;;;;;;;2.67;1.00;;;17.60;72.30;;;;;;5095468;27;20023;-60
2023/09/03 05:04:43;;;;;;;3.35;1.30;;;17.60;72.30;;;;;;5114131;27;20439;-59
2023/09/03 05:07:08;;;;;;;1.90;1.10;;;17.60;72.30;;;;;;5110904;27;20202;-61
2023/09/03 05:09:34;;;;;;;1.33;0.90;;;17.60;72.40;;;;;;5106274;27;20445;-60
2023/09/03 05:12:00;;;;;;;1.23;0.93;;;17.60;72.50;;;;;;5098780;27;20028;-59
2023/09/03 05:14:25;;;;;;;3.33;1.35;;;17.60;72.50;;;;;;5108511;27;20386;-60
2023/09/03 05:16:51;;;;;;;2.08;0.98;;;17.70;72.60;;;;;;5105047;27;20481;-60
2023/09/03 05:19:16;;;;;;;1.20;1.10;;;17.70;72.50;;;;;;5111718;27;20034;-60
2023/09/03 05:21:42;;;;;;;4.88;1.30;;;17.70;72.40;;;;;;5109127;27;20095;-60
2023/09/03 05:24:10;;;;;;;1.92;1.10;;;17.60;72.40;;;;;;5106743;27;20511;-60
2023/09/03 05:26:36;;;;;;;2.67;1.40;;;17.70;72.60;;;;;;5105245;27;20466;-60
2023/09/03 05:29:02;;;;;;;2.15;1.00;;;17.70;72.60;;;;;;5005377;27;20037;-61
2023/09/03 05:31:30;;;;;;;1.10;1.00;;;17.70;72.60;;;;;;5100697;27;20060;-62
2023/09/03 05:33:56;;;;;;;1.38;1.10;;;17.70;72.60;;;;;;5107138;27;20024;-60
2023/09/03 05:36:22;;;;;;;1.58;1.00;;;17.80;72.50;;;;;;5109055;27;20398;-60
2023/09/03 05:38:47;;;;;;;1.83;1.10;;;17.80;72.50;;;;;;5112280;27;20784;-60
2023/09/03 05:41:13;;;;;;;0.95;0.90;;;17.80;72.50;;;;;;5107006;27;20028;-61
2023/09/03 05:43:39;;;;;;;2.42;1.08;;;17.80;72.50;;;;;;5098278;28;20501;-60
2023/09/03 05:46:05;;;;;;;1.00;0.90;;;17.80;72.50;;;;;;5086672;28;20027;-62
2023/09/03 05:48:31;;;;;;;2.35;0.98;;;17.90;72.60;;;;;;5104955;28;20128;-61
2023/09/03 05:50:57;;;;;;;1.30;0.95;;;17.80;72.50;;;;;;5098635;28;20020;-60
2023/09/03 05:53:24;;;;;;;9.90;1.20;;;17.90;72.60;;;;;;5103982;28;20030;-61
2023/09/03 05:55:49;;;;;;;1.88;1.15;;;17.90;72.70;;;;;;5104262;28;20028;-61
2023/09/03 05:58:16;;;;;;;1.73;1.10;;;18.00;73.00;;;;;;5100436;28;20076;-60
2023/09/03 06:00:42;;;;;;;4.35;1.25;;;18.00;73.00;;;;;;5103325;28;20023;-60
2023/09/03 06:03:08;;;;;;;1.15;1.05;;;18.10;73.00;;;;;;5101922;28;20028;-60
2023/09/03 06:05:34;;;;;;;4.95;1.20;;;18.20;73.10;;;;;;5107710;28;20076;-62
2023/09/03 06:08:00;;;;;;;1.83;1.02;;;18.20;73.10;;;;;;5102721;28;20614;-61
2023/09/03 06:10:26;;;;;;;1.10;1.00;;;18.30;73.00;;;;;;5105413;28;20020;-61
2023/09/03 06:12:51;;;;;;;2.17;0.80;;;18.40;73.10;;;;;;5103754;28;20480;-61
2023/09/03 06:15:17;;;;;;;2.50;0.90;;;18.50;73.00;;;;;;5104694;28;20442;-61
2023/09/03 06:17:48;;;;;;;3.05;1.15;;;18.60;73.10;;;;;;5099338;28;20024;-60
2023/09/03 06:20:14;;;;;;;4.18;1.17;;;18.60;72.90;;;;;;5104486;28;20473;-61
2023/09/03 06:22:39;;;;;;;3.53;1.00;;;18.70;72.70;;;;;;5095775;28;20184;-60
2023/09/03 06:25:06;;;;;;;1.27;1.13;;;18.80;72.70;;;;;;5106268;28;20032;-60
2023/09/03 06:27:32;;;;;;;0.93;0.80;;;18.90;72.60;;;;;;5105402;28;20032;-60
2023/09/03 06:29:58;;;;;;;3.17;0.93;;;19.00;72.50;;;;;;5103804;28;20482;-60
2023/09/03 06:32:24;;;;;;;3.78;1.10;;;19.10;72.40;;;;;;5097466;28;20034;-61
2023/09/03 06:34:50;;;;;;;1.33;1.02;;;19.10;72.20;;;;;;5109077;28;20033;-61
2023/09/03 06:37:15;;;;;;;2.63;1.00;;;19.20;72.20;;;;;;5104808;28;20111;-60
2023/09/03 06:39:41;;;;;;;0.98;0.90;;;19.30;72.00;;;;;;5101445;28;20078;-61
2023/09/03 06:42:08;;;;;;;1.77;1.00;;;19.40;71.90;;;;;;5104276;28;20024;-61
2023/09/03 06:44:34;;;;;;;1.52;0.90;;;19.50;71.70;;;;;;5102171;28;20028;-60
2023/09/03 06:47:00;;;;;;;3.92;1.30;;;19.50;71.40;;;;;;5090707;28;20030;-61
2023/09/03 06:49:26;;;;;;;1.63;0.90;;;19.60;71.20;;;;;;5107813;28;20485;-61
2023/09/03 06:51:52;;;;;;;4.85;1.02;;;19.70;71.10;;;;;;5106757;28;20122;-61
2023/09/03 06:54:17;;;;;;;2.25;0.85;;;19.70;71.10;;;;;;5109782;28;20136;-61
2023/09/03 06:56:43;;;;;;;1.42;0.90;;;19.80;71.20;;;;;;5101393;28;20115;-60
2023/09/03 06:59:09;;;;;;;2.63;1.00;;;19.90;71.40;;;;;;5084129;28;20902;-60
2023/09/03 07:01:35;;;;;;;5.85;1.10;;;20.00;71.50;;;;;;5109838;27;20077;-61
2023/09/03 07:04:00;;;;;;;6.63;1.25;;;20.10;71.20;;;;;;5109297;27;20144;-61
2023/09/03 07:06:26;;;;;;;1.50;1.02;;;20.10;70.70;;;;;;5104448;27;20022;-61
2023/09/03 07:08:53;;;;;;;4.43;1.70;;;20.20;70.40;;;;;;5112716;27;20487;-60
2023/09/03 07:11:19;;;;;;;1.90;1.02;;;20.30;70.00;;;;;;5111342;27;20023;-61
2023/09/03 07:13:45;;;;;;;3.30;1.20;;;20.30;69.80;;;;;;5108767;27;20088;-62
2023/09/03 07:16:10;;;;;;;3.55;0.95;;;20.30;69.70;;;;;;5100528;27;20115;-61
2023/09/03 07:18:36;;;;;;;3.65;0.90;;;20.40;70.20;;;;;;5095532;27;20546;-60
2023/09/03 07:21:07;;;;;;;1.38;1.00;;;20.50;70.30;;;;;;5112252;27;20688;-62
2023/09/03 07:23:33;;;;;;;3.38;1.08;;;20.50;70.50;;;;;;5106446;27;20513;-62
2023/09/03 07:26:04;;;;;;;2.15;1.02;;;20.70;70.70;;;;;;5107133;27;20062;-63
2023/09/03 07:28:31;;;;;;;1.25;0.93;;;20.80;70.20;;;;;;5102359;27;20506;-61
2023/09/03 07:30:57;;;;;;;1.08;0.85;;;20.90;70.00;;;;;;5104017;27;20039;-61
2023/09/03 07:33:22;;;;;;;1.50;0.90;;;21.00;69.70;;;;;;5108323;27;20670;-64
2023/09/03 07:35:48;;;;;;;2.80;1.50;;;21.10;69.80;;;;;;5105094;27;20032;-61
2023/09/03 07:38:13;;;;;;;6.40;1.00;;;21.20;69.70;;;;;;5104067;27;20043;-62
2023/09/03 07:40:39;;;;;;;4.03;1.05;;;21.30;69.60;;;;;;5104113;27;20434;-62
2023/09/03 07:43:05;;;;;;;1.80;1.00;;;21.40;69.30;;;;;;5105631;27;20031;-62
2023/09/03 07:45:31;;;;;;;4.65;1.13;;;21.50;69.10;;;;;;5105558;27;20517;-61
2023/09/03 07:47:57;;;;;;;0.77;0.77;;;21.60;68.70;;;;;;5101515;27;20019;-61
2023/09/03 07:50:23;;;;;;;3.05;1.15;;;21.70;68.60;;;;;;5109320;27;20039;-61
2023/09/03 07:52:48;;;;;;;2.20;1.30;;;21.80;68.60;;;;;;5101684;27;20031;-61
2023/09/03 07:55:15;;;;;;;2.10;1.10;;;21.90;68.40;;;;;;5106811;27;20352;-61
2023/09/03 07:57:40;;;;;;;2.25;1.00;;;22.00;68.20;;;;;;5102290;27;20385;-63
2023/09/03 08:00:07;;;;;;;2.78;0.90;;;22.10;68.00;;;;;;5107083;27;20027;-62
2023/09/03 08:02:32;;;;;;;2.90;1.00;;;22.20;67.90;;;;;;5110508;27;20050;-61
2023/09/03 08:04:58;;;;;;;1.73;1.08;;;22.30;67.70;;;;;;5105988;27;20040;-62
2023/09/03 08:07:24;;;;;;;2.85;1.13;;;22.40;67.60;;;;;;5102798;27;20040;-61
2023/09/03 08:09:50;;;;;;;2.05;0.90;;;22.50;67.50;;;;;;5104950;27;20486;-61
2023/09/03 08:12:16;;;;;;;3.10;0.80;;;22.70;67.40;;;;;;5099776;27;20039;-62
2023/09/03 08:14:43;;;;;;;1.48;1.00;;;22.80;67.00;;;;;;5104118;27;20106;-61
2023/09/03 08:17:09;;;;;;;2.05;1.00;;;22.90;66.80;;;;;;5105474;27;20056;-61
2023/09/03 08:19:35;;;;;;;1.88;1.23;;;23.10;66.80;;;;;;5102966;27;20012;-63
2023/09/03 08:22:02;;;;;;;1.10;0.90;;;23.20;66.60;;;;;;5104014;27;20027;-62
2023/09/03 08:24:28;;;;;;;1.65;1.00;;;23.40;66.30;;;;;;5108322;27;20052;-61
2023/09/03 08:26:53;;;;;;;2.55;1.27;;;23.50;65.90;;;;;;5100533;27;20409;-63
2023/09/03 08:29:19;;;;;;;1.20;0.85;;;23.70;65.50;;;;;;5033631;27;20042;-60
2023/09/03 08:31:45;;;;;;;1.25;0.85;;;23.90;64.70;;;;;;5086134;28;20023;-62
2023/09/03 08:34:10;;;;;;;2.65;0.90;;;24.00;65.00;;;;;;5102465;27;20027;-62
2023/09/03 08:36:36;;;;;;;1.58;1.05;;;24.20;65.00;;;;;;5089770;27;20040;-62
2023/09/03 08:39:02;;;;;;;2.50;0.90;;;24.30;64.20;;;;;;5110570;27;20031;-63
2023/09/03 08:41:28;;;;;;;1.98;0.90;;;24.50;63.70;;;;;;5089735;27;20031;-62
2023/09/03 08:43:56;;;;;;;0.90;0.77;;;24.60;63.50;;;;;;5089131;27;20058;-62
2023/09/03 08:46:25;;;;;;;1.30;1.00;;;24.70;63.00;;;;;;5107871;27;20478;-62
2023/09/03 08:48:52;;;;;;;1.95;0.70;;;24.80;62.90;;;;;;5099523;27;20578;-61
2023/09/03 08:51:18;;;;;;;0.80;0.80;;;25.00;62.20;;;;;;5104759;27;20034;-64
2023/09/03 08:53:46;;;;;;;1.20;0.90;;;25.10;61.80;;;;;;5098585;27;20573;-61
2023/09/03 08:56:11;;;;;;;2.25;0.80;;;25.20;61.60;;;;;;5094525;27;20493;-62
2023/09/03 08:58:38;;;;;;;1.30;0.80;;;25.40;61.10;;;;;;5099180;27;20154;-62
2023/09/03 09:01:05;;;;;;;0.70;0.65;;;25.50;60.90;;;;;;5099527;27;20028;-61
2023/09/03 09:03:34;;;;;;;1.17;0.70;;;25.60;60.60;;;;;;5094467;27;20060;-63
2023/09/03 09:06:00;;;;;;;1.80;0.85;;;25.80;60.30;;;;;;5103310;27;20030;-62
2023/09/03 09:08:26;;;;;;;0.60;0.60;;;25.90;59.20;;;;;;5109866;27;20410;-62
2023/09/03 09:10:54;;;;;;;1.10;0.85;;;26.00;58.70;;;;;;5088059;28;20039;-62
2023/09/03 09:13:24;;;;;;;3.40;0.80;;;26.10;58.50;;;;;;5107448;27;20080;-62
2023/09/03 09:15:50;;;;;;;0.98;0.70;;;26.20;58.20;;;;;;5111160;27;20504;-63
2023/09/03 09:18:16;;;;;;;0.82;0.73;;;26.30;58.50;;;;;;5106727;28;20041;-63
2023/09/03 09:20:42;;;;;;;0.90;0.80;;;26.50;57.90;;;;;;5099444;27;20034;-60
2023/09/03 09:23:08;;;;;;;1.73;0.90;;;26.60;58.00;;;;;;5093392;27;20032;-62
2023/09/03 09:25:38;;;;;;;2.63;0.98;;;26.70;57.70;;;;;;5080358;28;20032;-62
2023/09/03 09:28:13;;;;;;;2.58;0.90;;;26.70;56.90;;;;;;5047276;27;20035;-62
2023/09/03 09:30:56;;;;;;;3.38;0.60;;;26.80;55.50;;;;;;5105902;27;20019;-62
2023/09/03 09:33:23;;;;;;;1.73;0.90;;;26.80;55.80;;;;;;5112733;27;20031;-62
2023/09/03 09:35:49;;;;;;;1.27;0.77;;;26.90;56.10;;;;;;5107669;27;20031;-62
2023/09/03 09:38:18;;;;;;;0.80;0.80;;;26.90;55.80;;;;;;5104234;27;20065;-63
2023/09/03 09:40:43;;;;;;;1.65;0.80;;;27.00;55.30;;;;;;5106916;27;20054;-62
2023/09/03 09:43:10;;;;;;;0.60;0.60;;;27.00;55.70;;;;;;5103243;27;20086;-63
2023/09/03 09:45:50;;;;;;;3.83;1.00;;;27.10;55.60;;;;;;5103572;27;20557;-62
2023/09/03 09:48:16;;;;;;;2.03;0.90;;;27.10;54.60;;;;;;5105763;27;20481;-63
2023/09/03 09:50:47;;;;;;;1.15;0.70;;;27.20;55.00;;;;;;5108509;28;20027;-62
2023/09/03 09:53:20;;;;;;;1.33;0.60;;;27.20;54.30;;;;;;5104524;28;20028;-62
2023/09/03 09:55:46;;;;;;;0.90;0.70;;;27.30;54.00;;;;;;5106557;28;20091;-62
2023/09/03 09:58:12;;;;;;;1.15;0.60;;;27.30;54.40;;;;;;5100108;28;20091;-61
2023/09/03 10:00:41;;;;;;;0.82;0.60;;;27.40;54.20;;;;;;5081796;28;20176;-61
2023/09/03 10:03:10;;;;;;;2.42;0.60;;;27.40;54.10;;;;;;5099645;28;20024;-61
2023/09/03 10:05:37;;;;;;;2.08;0.60;;;27.40;54.20;;;;;;5104155;28;20035;-63
2023/09/03 10:08:03;;;;;;;0.70;0.65;;;27.40;54.70;;;;;;5101329;27;20130;-62
2023/09/03 10:10:30;;;;;;;0.75;0.70;;;27.50;54.70;;;;;;5106480;28;20076;-63
2023/09/03 10:12:55;;;;;;;0.85;0.60;;;27.50;53.60;;;;;;5109287;28;20389;-64
2023/09/03 10:15:22;;;;;;;2.08;0.60;;;27.60;53.30;;;;;;5108410;28;20028;-62
2023/09/03 10:17:53;;;;;;;6.75;0.80;;;27.70;53.80;;;;;;5090367;28;20019;-64
2023/09/03 10:20:20;;;;;;;1.35;0.70;;;27.70;53.40;;;;;;5101607;28;20051;-62
2023/09/03 10:22:49;;;;;;;0.93;0.77;;;27.80;53.70;;;;;;5101217;28;20019;-63
2023/09/03 10:25:20;;;;;;;1.23;0.73;;;27.90;53.10;;;;;;5110802;28;20505;-63
2023/09/03 10:27:50;;;;;;;0.80;0.60;;;27.90;53.70;;;;;;5100316;28;20016;-64
2023/09/03 10:30:23;;;;;;;1.35;0.50;;;28.10;53.30;;;;;;5106717;28;20047;-61
2023/09/03 10:32:51;;;;;;;0.73;0.60;;;28.20;52.90;;;;;;5088736;28;20043;-63
2023/09/03 10:35:17;;;;;;;0.52;0.52;;;28.30;53.30;;;;;;5103988;28;20020;-62
2023/09/03 10:37:43;;;;;;;0.50;0.43;;;28.40;52.70;;;;;;5111120;27;20028;-63
2023/09/03 10:40:21;;;;;;;0.70;0.70;;;28.50;51.60;;;;;;5110031;27;20076;-62
2023/09/03 10:42:51;;;;;;;0.70;0.70;;;28.50;49.90;;;;;;5111511;27;20028;-64
2023/09/03 10:45:21;;;;;;;0.50;0.50;;;28.40;50.20;;;;;;5110614;27;20049;-62
2023/09/03 10:48:00;;;;;;;0.63;0.63;;;28.40;51.00;;;;;;5107824;27;20482;-64
2023/09/03 10:50:50;;;;;;;0.68;0.60;;;28.40;50.10;;;;;;5115111;27;20127;-64
2023/09/03 10:53:38;;;;;;;0.55;0.55;;;28.40;49.60;;;;;;5115205;27;20027;-63
2023/09/03 10:56:14;;;;;;;1.30;0.52;;;28.50;48.20;;;;;;5111560;27;20032;-64
2023/09/03 10:58:55;;;;;;;0.75;0.50;;;28.50;48.70;;;;;;5107762;27;20522;-62
2023/09/03 11:01:31;;;;;;;2.67;0.50;;;28.50;48.50;;;;;;5105157;27;20028;-62
2023/09/03 11:03:58;;;;;;;0.70;0.50;;;28.60;49.30;;;;;;5110871;27;20074;-62
2023/09/03 11:06:31;;;;;;;0.77;0.50;;;28.60;49.50;;;;;;5108872;27;20038;-61
2023/09/03 11:08:59;;;;;;;2.17;0.80;;;28.70;48.20;;;;;;5102070;27;20028;-63
2023/09/03 11:11:28;;;;;;;0.40;0.40;;;28.70;48.20;;;;;;5110980;27;20153;-62
2023/09/03 11:13:55;;;;;;;0.65;0.60;;;28.80;48.80;;;;;;5113494;27;20027;-62
2023/09/03 11:16:32;;;;;;;0.82;0.43;;;28.80;48.60;;;;;;5112904;27;20142;-63
2023/09/03 11:18:59;;;;;;;3.00;0.98;;;28.80;47.20;;;;;;5107857;27;20397;-63
2023/09/03 11:21:25;;;;;;;1.58;0.50;;;28.80;48.20;;;;;;5110418;27;20027;-63
2023/09/03 11:23:57;;;;;;;1.38;0.57;;;28.80;47.60;;;;;;5114208;27;20040;-63
2023/09/03 11:26:23;;;;;;;0.75;0.50;;;28.70;47.10;;;;;;5106853;27;20635;-62
2023/09/03 11:28:50;;;;;;;3.38;0.70;;;28.70;48.30;;;;;;5022651;27;20102;-64
2023/09/03 11:31:16;;;;;;;1.02;0.50;;;28.70;48.00;;;;;;5092609;27;20015;-62
2023/09/03 11:33:42;;;;;;;1.60;0.50;;;28.70;47.10;;;;;;5109906;27;20383;-62
2023/09/03 11:36:07;;;;;;;2.13;0.57;;;28.70;47.50;;;;;;5108501;27;20042;-62
2023/09/03 11:38:34;;;;;;;1.52;0.50;;;28.70;47.80;;;;;;5110589;27;20489;-63
2023/09/03 11:41:00;;;;;;;0.50;0.50;;;28.70;48.60;;;;;;5117231;27;20113;-64
2023/09/03 11:43:34;;;;;;;0.50;0.50;;;28.80;47.70;;;;;;5114060;27;20080;-62
2023/09/03 11:46:01;;;;;;;0.50;0.40;;;28.80;47.70;;;;;;5111004;27;20496;-62
2023/09/03 11:48:30;;;;;;;1.38;0.40;;;28.90;47.20;;;;;;5106659;27;20027;-64
2023/09/03 11:50:56;;;;;;;3.80;0.60;;;29.00;46.60;;;;;;5102782;27;20494;-62
2023/09/03 11:53:24;;;;;;;1.80;0.60;;;29.00;46.40;;;;;;5106420;27;20031;-63
2023/09/03 11:55:59;;;;;;;1.50;0.60;;;29.00;46.50;;;;;;5106242;27;20089;-63
2023/09/03 11:58:28;;;;;;;1.30;0.68;;;29.10;46.40;;;;;;5089141;28;20031;-63
2023/09/03 12:00:54;;;;;;;0.45;0.45;;;29.10;46.40;;;;;;5110358;27;20043;-63
2023/09/03 12:03:21;;;;;;;0.75;0.50;;;29.10;46.40;;;;;;5091392;28;20097;-63
2023/09/03 12:05:47;;;;;;;0.93;0.55;;;29.20;46.20;;;;;;5099260;27;20060;-62
2023/09/03 12:08:12;;;;;;;3.67;0.70;;;29.20;45.80;;;;;;5105906;27;20128;-62
2023/09/03 12:10:38;;;;;;;0.50;0.50;;;29.20;46.20;;;;;;5106094;27;20019;-62
2023/09/03 12:13:04;;;;;;;0.82;0.50;;;29.20;46.30;;;;;;5085298;28;20028;-62
2023/09/03 12:15:31;;;;;;;0.60;0.50;;;29.20;46.40;;;;;;5106881;27;20024;-63
2023/09/03 12:18:09;;;;;;;0.57;0.45;;;29.20;46.90;;;;;;5110119;27;20396;-63
2023/09/03 12:20:35;;;;;;;4.38;1.30;;;29.20;45.70;;;;;;5112411;27;20037;-62
2023/09/03 12:23:15;;;;;;;0.70;0.70;;;29.20;46.30;;;;;;5107812;27;20024;-62
2023/09/03 12:25:42;;;;;;;0.68;0.50;;;29.30;45.60;;;;;;5101241;27;20057;-62
2023/09/03 12:28:10;;;;;;;0.60;0.50;;;29.40;46.20;;;;;;4983773;27;20111;-62
2023/09/03 12:30:56;;;;;;;2.95;0.57;;;29.40;45.70;;;;;;5099003;27;20125;-62
2023/09/03 12:33:46;;;;;;;1.27;0.63;;;29.40;45.50;;;;;;5107594;27;20501;-62
2023/09/03 12:36:13;;;;;;;0.43;0.40;;;29.40;45.30;;;;;;5098420;27;20119;-63
2023/09/03 12:38:53;;;;;;;0.63;0.47;;;29.30;45.20;;;;;;5104331;27;20032;-63
2023/09/03 12:41:23;;;;;;;0.85;0.63;;;29.20;44.90;;;;;;5102790;27;20035;-63
2023/09/03 12:43:49;;;;;;;0.60;0.60;;;29.20;45.90;;;;;;5106409;27;20031;-63
2023/09/03 12:46:15;;;;;;;1.48;0.60;;;29.30;45.90;;;;;;5110396;27;20034;-60
2023/09/03 12:48:47;;;;;;;0.50;0.50;;;29.50;45.90;;;;;;5115381;27;20494;-62
2023/09/03 12:51:16;;;;;;;0.60;0.50;;;29.50;44.20;;;;;;5106210;27;20019;-62